createdAt,value
2023-04-15T00:00:25.825Z,11.30
2023-04-15T00:05:51.140Z,11.31
2023-04-15T00:11:13.066Z,11.25
2023-04-15T00:16:34.863Z,11.22
2023-04-15T00:21:57.425Z,11.22
2023-04-15T00:27:19.859Z,11.17
2023-04-15T00:32:42.552Z,11.12
2023-04-15T00:38:04.999Z,11.01
2023-04-15T00:43:27.951Z,10.96
2023-04-15T00:48:50.689Z,10.88
2023-04-15T00:54:13.227Z,10.86
2023-04-15T00:59:36.353Z,10.84
2023-04-15T01:04:58.278Z,10.84
2023-04-15T01:10:20.231Z,10.84
2023-04-15T01:15:42.866Z,10.81
2023-04-15T01:21:06.012Z,10.73
2023-04-15T01:26:28.405Z,10.66
2023-04-15T01:31:55.172Z,10.60
2023-04-15T01:37:17.280Z,10.58
2023-04-15T01:42:39.007Z,10.59
2023-04-15T01:48:01.081Z,10.52
2023-04-15T01:53:22.580Z,10.48
2023-04-15T01:58:47.272Z,10.43
2023-04-15T02:04:16.595Z,10.39
2023-04-15T02:09:38.917Z,10.33
2023-04-15T02:15:02.933Z,10.29
2023-04-15T02:20:24.554Z,10.16
2023-04-15T02:25:53.598Z,9.94
2023-04-15T02:31:16.069Z,9.98
2023-04-15T02:36:37.878Z,10.01
2023-04-15T02:42:01.695Z,9.94
2023-04-15T02:47:24.393Z,9.89
2023-04-15T02:52:49.289Z,9.86
2023-04-15T02:58:11.117Z,9.88
2023-04-15T03:03:33.061Z,9.89
2023-04-15T03:08:55.171Z,9.88
2023-04-15T03:14:17.901Z,9.75
2023-04-15T03:19:41.737Z,9.51
2023-04-15T03:25:04.868Z,9.50
2023-04-15T03:30:27.772Z,9.52
2023-04-15T03:35:51.841Z,9.52
2023-04-15T03:41:13.568Z,9.45
2023-04-15T03:46:35.506Z,9.35
2023-04-15T03:51:57.936Z,9.22
2023-04-15T03:57:19.762Z,9.20
2023-04-15T04:02:44.105Z,9.16
2023-04-15T04:08:06.634Z,9.05
2023-04-15T04:13:28.457Z,8.92
2023-04-15T04:18:53.297Z,8.95
2023-04-15T04:24:15.127Z,8.96
2023-04-15T04:29:37.145Z,8.90
2023-04-15T04:34:58.985Z,8.85
2023-04-15T04:40:23.936Z,8.80
2023-04-15T04:45:45.868Z,8.93
2023-04-15T04:51:09.215Z,9.04
2023-04-15T04:56:33.521Z,9.14
2023-04-15T05:01:55.680Z,9.17
2023-04-15T05:07:17.782Z,9.27
2023-04-15T05:12:39.724Z,9.41
2023-04-15T05:18:01.714Z,9.43
2023-04-15T05:23:23.775Z,9.52
2023-04-15T05:28:45.603Z,9.66
2023-04-15T05:34:08.448Z,9.79
2023-04-15T05:39:31.172Z,9.93
2023-04-15T05:44:53.101Z,10.02
2023-04-15T05:50:15.026Z,10.04
2023-04-15T05:55:37.158Z,10.08
2023-04-15T06:00:59.087Z,10.08
2023-04-15T06:06:21.117Z,10.03
2023-04-15T06:11:42.947Z,10.09
2023-04-15T06:17:04.778Z,10.19
2023-04-15T06:22:26.607Z,10.21
2023-04-15T06:27:48.633Z,10.41
2023-04-15T06:33:10.973Z,10.55
2023-04-15T06:38:32.994Z,10.42
2023-04-15T06:43:55.725Z,10.63
2023-04-15T06:49:19.062Z,10.90
2023-04-15T06:54:41.094Z,11.06
2023-04-15T07:00:05.935Z,10.97
2023-04-15T07:05:28.051Z,11.14
2023-04-15T07:10:49.685Z,11.24
2023-04-15T07:16:11.688Z,11.35
2023-04-15T07:21:33.717Z,11.44
2023-04-15T07:27:00.838Z,11.28
2023-04-15T07:32:23.027Z,11.52
2023-04-15T07:37:44.708Z,11.64
2023-04-15T07:43:06.986Z,11.84
2023-04-15T07:48:28.415Z,12.08
2023-04-15T07:53:50.850Z,12.16
2023-04-15T07:59:13.270Z,12.26
2023-04-15T08:04:35.424Z,12.46
2023-04-15T08:09:57.543Z,12.72
2023-04-15T08:15:22.426Z,12.95
2023-04-15T08:20:44.402Z,13.16
2023-04-15T08:26:06.535Z,13.22
2023-04-15T08:31:29.975Z,13.31
2023-04-15T08:36:51.701Z,13.41
2023-04-15T08:42:17.741Z,13.68
2023-04-15T08:47:40.961Z,13.67
2023-04-15T08:53:03.003Z,13.85
2023-04-15T08:58:25.439Z,14.25
2023-04-15T09:03:49.398Z,14.31
2023-04-15T09:09:13.408Z,14.25
2023-04-15T09:14:35.236Z,14.19
2023-04-15T09:20:10.964Z,14.63
2023-04-15T09:25:34.934Z,15.07
2023-04-15T09:31:01.361Z,15.02
2023-04-15T09:36:23.420Z,14.89
2023-04-15T09:41:45.454Z,14.80
2023-04-15T09:47:07.586Z,15.03
2023-04-15T09:52:30.315Z,15.18
2023-04-15T09:57:52.453Z,15.02
2023-04-15T10:03:16.572Z,15.21
2023-04-15T10:08:38.811Z,15.21
2023-04-15T10:14:01.165Z,15.21
2023-04-15T10:19:26.888Z,15.36
2023-04-15T10:24:49.324Z,15.48
2023-04-15T10:30:11.951Z,15.69
2023-04-15T10:35:34.696Z,16.03
2023-04-15T10:41:17.757Z,16.12
2023-04-15T10:46:44.741Z,16.16
2023-04-15T10:52:08.480Z,16.31
2023-04-15T10:57:39.531Z,16.13
2023-04-15T11:03:08.882Z,15.84
2023-04-15T11:08:54.647Z,15.50
2023-04-15T11:14:16.524Z,15.57
2023-04-15T11:19:39.557Z,15.68
2023-04-15T11:25:02.855Z,15.50
2023-04-15T11:30:27.097Z,15.48
2023-04-15T11:35:49.258Z,15.36
2023-04-15T11:41:11.588Z,15.21
2023-04-15T11:46:33.322Z,15.36
2023-04-15T11:51:55.351Z,15.53
2023-04-15T11:57:17.382Z,15.53
2023-04-15T12:02:39.870Z,15.55
2023-04-15T12:08:02.041Z,15.43
2023-04-15T12:13:24.169Z,15.43
2023-04-15T12:18:47.362Z,15.38
2023-04-15T12:24:10.336Z,15.25
2023-04-15T12:29:32.894Z,15.23
2023-04-15T12:34:54.799Z,15.07
2023-04-15T12:40:16.731Z,14.92
2023-04-15T12:45:38.713Z,14.94
2023-04-15T12:51:04.469Z,15.06
2023-04-15T12:56:27.839Z,15.12
2023-04-15T13:01:50.460Z,15.27
2023-04-15T13:07:14.210Z,15.42
2023-04-15T13:12:36.921Z,15.47
2023-04-15T13:17:58.895Z,15.48
2023-04-15T13:23:20.998Z,15.51
2023-04-15T13:28:42.873Z,15.58
2023-04-15T13:34:04.784Z,15.79
2023-04-15T13:39:27.486Z,15.91
2023-04-15T13:44:51.506Z,15.85
2023-04-15T13:50:13.453Z,15.48
2023-04-15T13:55:36.485Z,15.52
2023-04-15T14:00:58.101Z,15.48
2023-04-15T14:06:20.718Z,15.48
2023-04-15T14:11:43.111Z,15.61
2023-04-15T14:17:07.450Z,15.62
2023-04-15T14:22:29.287Z,15.46
2023-04-15T14:27:51.119Z,15.41
2023-04-15T14:33:13.335Z,15.34
2023-04-15T14:38:38.800Z,15.27
2023-04-15T14:44:01.411Z,15.12
2023-04-15T14:49:24.483Z,15.02
2023-04-15T14:54:46.407Z,14.90
2023-04-15T15:00:10.595Z,14.76
2023-04-15T15:05:32.542Z,14.62
2023-04-15T15:10:54.771Z,14.54
2023-04-15T15:16:16.651Z,14.52
2023-04-15T15:21:38.790Z,14.46
2023-04-15T15:27:00.659Z,14.27
2023-04-15T15:32:23.609Z,14.08
2023-04-15T15:37:46.340Z,13.99
2023-04-15T15:43:08.375Z,13.93
2023-04-15T15:48:30.585Z,13.87
2023-04-15T15:53:52.417Z,13.78
2023-04-15T15:59:14.047Z,13.83
2023-04-15T16:04:36.101Z,13.85
2023-04-15T16:09:57.844Z,13.80
2023-04-15T16:15:19.729Z,13.85
2023-04-15T16:20:41.959Z,13.92
2023-04-15T16:26:04.690Z,13.94
2023-04-15T16:31:26.648Z,13.89
2023-04-15T16:36:48.817Z,13.88
2023-04-15T16:42:10.800Z,13.74
2023-04-15T16:47:33.991Z,13.56
2023-04-15T16:52:56.257Z,13.41
2023-04-15T16:58:17.870Z,13.35
2023-04-15T17:03:40.390Z,13.24
2023-04-15T17:09:02.806Z,13.07
2023-04-15T17:14:24.829Z,12.94
2023-04-15T17:19:48.912Z,12.84
2023-04-15T17:25:11.129Z,12.76
2023-04-15T17:30:33.560Z,12.62
2023-04-15T17:35:55.689Z,12.39
2023-04-15T17:41:17.692Z,12.07
2023-04-15T17:46:39.615Z,11.81
2023-04-15T17:52:01.885Z,11.57
2023-04-15T17:57:25.318Z,11.36
2023-04-15T18:02:48.900Z,11.16
2023-04-15T18:08:11.288Z,10.93
2023-04-15T18:13:33.110Z,10.84
2023-04-15T18:18:54.739Z,10.81
2023-04-15T18:24:16.867Z,10.75
2023-04-15T18:29:43.162Z,10.84
2023-04-15T18:35:06.255Z,10.93
2023-04-15T18:40:28.982Z,10.96
2023-04-15T18:45:54.758Z,10.85
2023-04-15T18:51:16.959Z,10.73
2023-04-15T18:56:39.909Z,10.74
2023-04-15T19:02:06.606Z,10.76
2023-04-15T19:07:30.578Z,10.71
2023-04-15T19:12:54.126Z,10.69
2023-04-15T19:18:16.841Z,10.68
2023-04-15T19:23:39.276Z,10.69
2023-04-15T19:29:01.355Z,10.73
2023-04-15T19:34:25.072Z,10.79
2023-04-15T19:39:47.171Z,10.73
2023-04-15T19:45:09.821Z,10.48
2023-04-15T19:50:32.638Z,10.49
2023-04-15T19:55:54.488Z,10.55
2023-04-15T20:01:16.519Z,10.56
2023-04-15T20:06:38.530Z,10.54
2023-04-15T20:12:48.155Z,10.53
2023-04-15T20:17:44.369Z,10.51
2023-04-15T20:23:06.244Z,10.48
2023-04-15T20:28:28.443Z,10.44
2023-04-15T20:33:50.238Z,10.43
2023-04-15T20:39:12.074Z,10.41
2023-04-15T20:44:34.704Z,10.39
2023-04-15T20:49:56.648Z,10.33
2023-04-15T20:55:18.876Z,10.27
2023-04-15T21:00:40.481Z,10.21
2023-04-15T21:06:02.432Z,10.16
2023-04-15T21:11:42.978Z,10.08
2023-04-15T21:17:10.595Z,10.02
2023-04-15T21:22:33.002Z,10.04
2023-04-15T21:27:54.928Z,10.04
2023-04-15T21:33:20.369Z,10.03
2023-04-15T21:38:42.414Z,9.96
2023-04-15T21:44:04.461Z,9.91
2023-04-15T21:49:26.254Z,9.83
2023-04-15T21:54:48.091Z,9.73
2023-04-15T22:00:11.016Z,9.62
2023-04-15T22:05:32.550Z,9.50
2023-04-15T22:10:54.972Z,9.38
2023-04-15T22:16:16.975Z,9.29
2023-04-15T22:21:39.248Z,9.25
2023-04-15T22:27:02.369Z,9.16
2023-04-15T22:32:24.522Z,8.96
2023-04-15T22:37:46.337Z,8.90
2023-04-15T22:43:08.459Z,8.91
2023-04-15T22:48:30.583Z,8.89
2023-04-15T22:53:52.396Z,8.80
2023-04-15T22:59:14.572Z,8.71
2023-04-15T23:04:36.592Z,8.67
2023-04-15T23:10:00.526Z,8.62
2023-04-15T23:15:22.643Z,8.55
2023-04-15T23:20:46.179Z,8.45
2023-04-15T23:26:09.410Z,8.37
2023-04-15T23:31:32.187Z,8.33
2023-04-15T23:36:54.179Z,8.32
2023-04-15T23:42:16.088Z,8.37
2023-04-15T23:47:40.253Z,8.43
2023-04-15T23:53:02.220Z,8.41
2023-04-15T23:58:24.354Z,8.37
